Portada
METAR-TAF:

METAR-TAF

Aeroports :

Kunming, Xina

latitud: 25-01N, longitud: 102-41E, altitud: 1892 m

Observació

L'informe es va fer fa 32 minuts, a les 15:00 UTC
Vent 14 kt del Nord/Nord-Est
Temperatura 14°C
Humitat 88%
Pressió 1022 hPa
Visibilitat 10 km o més
Núvols disperses a una alçada de 2600 ft

METAR: ZPPP 251500Z 03007MPS 9999 SCT026 14/12 Q1022 NOSIG

Hora: 23:32 (15:32 UTC)

Pronòstic

L'informe es va fer fa 6 hores i 26 minuts, a les 09:06 UTC
Pronòstic vàlid del 25 a les 12 UTC al 26 a les 12 UTC
Vent 12 kt del Nord-Est
Visibilitat 10 km o més
Núvols disperses a una alçada de 2600 ft
Cel ennuvolat a una alçada de 4000 ft
Temporalment
l' 26 a les 08 UTC al 26 a les 11 UTC
Escasses núvols a una alçada de 2600 ft, Cumulonimbus.
Núvols disperses a una alçada de 2600 ft
Cel ennuvolat a una alçada de 4000 ft
tempesta, pluja

TAF: ZPPP 250906Z 2512/2612 04006MPS 9999 SCT026 BKN040 TX21/2608Z TN14/2523Z TEMPO 2608/2611 -TSRA FEW026CB SCT026 BKN040

Observacions i pronòstics meteorològics de més de 4000 aeroports (METAR i TAF).

Les estacions disponibles són els punts grocs i vermells al mapa.

Posi el ratolí al punt desitjat per veure el nom de l'estació.

Feu clic per veure les observacions i els pronòstics meteorològics.

Per canviar el mapa: feu clic els botons verds amb una creu de color negre per apropar; al botó verd amb un guió per allunyar la imatge; o en les fletxes verdes per a mapes adjacents.


METAR-TAF: